createdAt,value
2016-11-18T00:00:46.881Z,0
2016-11-18T00:01:55.511Z,0
2016-11-18T00:03:04.959Z,0
2016-11-18T00:04:13.574Z,0
2016-11-18T00:05:22.502Z,0
2016-11-18T00:06:31.460Z,0
2016-11-18T00:07:40.075Z,0
2016-11-18T00:08:49.048Z,0
2016-11-18T00:09:58.309Z,0
2016-11-18T00:11:06.920Z,0
2016-11-18T00:12:15.863Z,0
2016-11-18T00:13:24.799Z,0
2016-11-18T00:14:34.088Z,0
2016-11-18T00:15:43.032Z,0
2016-11-18T00:16:52.287Z,0
2016-11-18T00:18:01.556Z,0
2016-11-18T00:19:10.518Z,0
2016-11-18T00:20:20.103Z,0
2016-11-18T00:21:29.072Z,0
2016-11-18T00:22:38.009Z,0
2016-11-18T00:23:46.615Z,0
2016-11-18T00:24:55.883Z,0
2016-11-18T00:26:04.599Z,0
2016-11-18T00:27:13.541Z,0
2016-11-18T00:28:22.799Z,0
2016-11-18T00:29:32.064Z,0
2016-11-18T00:30:40.994Z,0
2016-11-18T00:31:50.285Z,0
2016-11-18T00:32:58.905Z,0
2016-11-18T00:34:08.163Z,0
2016-11-18T00:35:17.430Z,0
2016-11-18T00:36:26.053Z,0
2016-11-18T00:37:35.105Z,0
2016-11-18T00:38:44.052Z,0
2016-11-18T00:39:52.665Z,0
2016-11-18T00:41:01.281Z,0
2016-11-18T00:42:10.548Z,0
2016-11-18T00:43:19.548Z,0
2016-11-18T00:44:28.839Z,0
2016-11-18T00:45:37.790Z,0
2016-11-18T00:46:46.718Z,0
2016-11-18T00:47:55.334Z,0
2016-11-18T00:49:04.628Z,0
2016-11-18T00:50:13.556Z,0
2016-11-18T00:51:22.162Z,0
2016-11-18T00:52:31.095Z,0
2016-11-18T00:53:39.710Z,0
2016-11-18T00:54:49.055Z,0
2016-11-18T00:55:57.984Z,0
2016-11-18T00:57:06.609Z,0
2016-11-18T00:58:15.602Z,0
2016-11-18T00:59:24.541Z,0
2016-11-18T01:00:34.143Z,0
2016-11-18T01:01:43.099Z,0
2016-11-18T01:02:52.690Z,0
2016-11-18T01:04:01.640Z,0
2016-11-18T01:05:10.576Z,0
2016-11-18T01:06:19.874Z,0
2016-11-18T01:07:28.814Z,0
2016-11-18T01:08:38.079Z,0
2016-11-18T01:09:46.689Z,0
2016-11-18T01:10:55.627Z,0
2016-11-18T01:12:04.347Z,0
2016-11-18T01:13:13.600Z,0
2016-11-18T01:14:22.865Z,0
2016-11-18T01:15:31.484Z,0
2016-11-18T01:16:40.113Z,0
2016-11-18T01:17:49.732Z,0
2016-11-18T01:18:58.360Z,0
2016-11-18T01:20:06.974Z,0
2016-11-18T01:21:16.224Z,0
2016-11-18T01:22:25.472Z,0
2016-11-18T01:23:34.536Z,0
2016-11-18T01:24:44.129Z,0
2016-11-18T01:25:52.746Z,0
2016-11-18T01:27:01.358Z,0
2016-11-18T01:28:09.977Z,0
2016-11-18T01:29:18.945Z,0
2016-11-18T01:30:27.606Z,0
2016-11-18T01:31:36.222Z,0
2016-11-18T01:32:45.171Z,0
2016-11-18T01:33:54.444Z,0
2016-11-18T01:35:03.160Z,0
2016-11-18T01:36:12.109Z,0
2016-11-18T01:37:20.725Z,0
2016-11-18T01:38:29.978Z,0
2016-11-18T01:39:39.238Z,0
2016-11-18T01:40:48.203Z,0
2016-11-18T01:41:56.823Z,0
2016-11-18T01:43:06.093Z,0
2016-11-18T01:44:15.039Z,0
2016-11-18T01:45:23.973Z,0
2016-11-18T01:46:33.387Z,0
2016-11-18T01:47:42.334Z,0
2016-11-18T01:48:51.616Z,0
2016-11-18T01:50:00.555Z,0
2016-11-18T01:51:09.498Z,0
2016-11-18T01:52:18.788Z,0
2016-11-18T01:53:27.397Z,0
2016-11-18T01:54:36.656Z,0
2016-11-18T01:55:45.584Z,0
2016-11-18T01:56:54.517Z,0
2016-11-18T01:58:03.191Z,0
2016-11-18T01:59:11.801Z,0
2016-11-18T02:00:21.071Z,0
2016-11-18T02:01:29.724Z,0
2016-11-18T02:02:39.002Z,0
2016-11-18T02:03:48.693Z,0
2016-11-18T02:04:57.660Z,0
2016-11-18T02:06:06.927Z,0
2016-11-18T02:07:16.193Z,0
2016-11-18T02:08:25.148Z,0
2016-11-18T02:09:34.215Z,0
2016-11-18T02:10:43.175Z,0
2016-11-18T02:11:52.444Z,0
2016-11-18T02:13:01.056Z,0
2016-11-18T02:14:10.006Z,0
2016-11-18T02:15:19.385Z,0
2016-11-18T02:16:28.013Z,0
2016-11-18T02:17:36.644Z,0
2016-11-18T02:18:45.593Z,0
2016-11-18T02:19:54.544Z,0
2016-11-18T02:21:03.267Z,0
2016-11-18T02:22:11.873Z,0
2016-11-18T02:23:20.487Z,0
2016-11-18T02:24:29.424Z,0
2016-11-18T02:25:38.735Z,0
2016-11-18T02:26:47.700Z,0
2016-11-18T02:27:56.682Z,0
2016-11-18T02:29:06.273Z,0
2016-11-18T02:30:14.904Z,0
2016-11-18T02:31:23.518Z,0
2016-11-18T02:32:32.819Z,0
2016-11-18T02:33:41.749Z,0
2016-11-18T02:34:51.041Z,0
2016-11-18T02:36:00.314Z,0
2016-11-18T02:37:09.246Z,0
2016-11-18T02:38:18.324Z,0
2016-11-18T02:39:27.264Z,0
2016-11-18T02:40:36.856Z,0
2016-11-18T02:41:45.780Z,0
2016-11-18T02:42:55.042Z,0
2016-11-18T02:44:04.371Z,0
2016-11-18T02:45:13.318Z,0
2016-11-18T02:46:22.253Z,0
2016-11-18T02:47:31.199Z,0
2016-11-18T02:48:40.154Z,0
2016-11-18T02:49:49.131Z,0
2016-11-18T02:50:58.072Z,0
2016-11-18T02:52:07.005Z,0
2016-11-18T02:53:15.954Z,0
2016-11-18T02:54:24.572Z,0
2016-11-18T02:55:33.567Z,0
2016-11-18T02:56:42.516Z,0
2016-11-18T02:57:51.467Z,0
2016-11-18T02:59:00.732Z,0
2016-11-18T03:00:09.675Z,0
2016-11-18T03:01:18.969Z,0
2016-11-18T03:02:27.907Z,0
2016-11-18T03:03:36.518Z,0
2016-11-18T03:04:46.099Z,0
2016-11-18T03:05:55.362Z,0
2016-11-18T03:07:05.343Z,0
2016-11-18T03:08:14.600Z,0
2016-11-18T03:09:23.538Z,0
2016-11-18T03:10:32.476Z,0
2016-11-18T03:11:41.083Z,0
2016-11-18T03:12:50.328Z,0
2016-11-18T03:13:58.941Z,0
2016-11-18T03:15:07.893Z,0
2016-11-18T03:16:16.511Z,0
2016-11-18T03:17:25.778Z,0
2016-11-18T03:18:35.483Z,0
2016-11-18T03:19:44.091Z,0
2016-11-18T03:20:53.342Z,0
2016-11-18T03:22:02.618Z,0
2016-11-18T03:23:12.205Z,0
2016-11-18T03:24:21.188Z,0
2016-11-18T03:25:30.439Z,0
2016-11-18T03:26:39.388Z,0
2016-11-18T03:27:48.001Z,0
2016-11-18T03:28:57.282Z,0
2016-11-18T03:30:06.917Z,0
2016-11-18T03:31:15.544Z,0
2016-11-18T03:32:24.485Z,0
2016-11-18T03:33:33.114Z,0
2016-11-18T03:34:42.089Z,0
2016-11-18T03:35:51.415Z,0
2016-11-18T03:37:00.356Z,0
2016-11-18T03:38:09.002Z,0
2016-11-18T03:39:17.939Z,0
2016-11-18T03:40:27.245Z,0
2016-11-18T03:41:36.161Z,0
2016-11-18T03:42:45.107Z,0
2016-11-18T03:43:54.049Z,0
2016-11-18T03:45:02.661Z,0
2016-11-18T03:46:11.279Z,0
2016-11-18T03:47:20.950Z,0
2016-11-18T03:48:29.884Z,0
2016-11-18T03:49:39.144Z,0
2016-11-18T03:50:47.761Z,0
2016-11-18T03:51:56.373Z,0
2016-11-18T03:53:05.770Z,0
2016-11-18T03:54:14.712Z,0
2016-11-18T03:55:23.324Z,0
2016-11-18T03:56:32.634Z,0
2016-11-18T03:57:41.257Z,0
2016-11-18T03:58:50.529Z,0
2016-11-18T03:59:59.780Z,0
2016-11-18T04:01:08.438Z,0
2016-11-18T04:02:17.047Z,0
2016-11-18T04:03:25.988Z,0
2016-11-18T04:04:35.643Z,0
2016-11-18T04:05:44.910Z,0
2016-11-18T04:06:53.527Z,0
2016-11-18T04:08:02.786Z,0
2016-11-18T04:09:11.402Z,0
2016-11-18T04:10:20.068Z,0
2016-11-18T04:11:28.688Z,0
2016-11-18T04:12:37.940Z,0
2016-11-18T04:13:46.891Z,0
2016-11-18T04:14:55.500Z,0
2016-11-18T04:16:04.170Z,0
2016-11-18T04:17:13.434Z,0
2016-11-18T04:18:22.067Z,0
2016-11-18T04:19:31.329Z,0
2016-11-18T04:20:39.954Z,0
2016-11-18T04:21:49.001Z,0
2016-11-18T04:22:58.289Z,0
2016-11-18T04:24:07.230Z,0
2016-11-18T04:25:16.169Z,0
2016-11-18T04:26:25.732Z,0
2016-11-18T04:27:34.406Z,0
2016-11-18T04:28:43.670Z,0
2016-11-18T04:29:52.924Z,0
2016-11-18T04:31:02.523Z,0
2016-11-18T04:32:11.456Z,0
2016-11-18T04:33:20.781Z,0
2016-11-18T04:34:29.724Z,0
2016-11-18T04:35:38.347Z,0
2016-11-18T04:36:47.289Z,0
2016-11-18T04:37:56.258Z,0
2016-11-18T04:39:05.238Z,0
2016-11-18T04:40:14.177Z,0
2016-11-18T04:41:22.790Z,0
2016-11-18T04:42:31.724Z,0
2016-11-18T04:43:40.352Z,0
2016-11-18T04:44:49.680Z,0
2016-11-18T04:45:58.306Z,0
2016-11-18T04:47:06.914Z,0
2016-11-18T04:48:15.519Z,0
2016-11-18T04:49:24.451Z,0
2016-11-18T04:50:33.417Z,0
2016-11-18T04:51:42.691Z,0
2016-11-18T04:52:51.643Z,0
2016-11-18T04:54:01.278Z,0
2016-11-18T04:55:09.908Z,0
2016-11-18T04:56:19.632Z,0
2016-11-18T04:57:28.254Z,0
2016-11-18T04:58:37.209Z,0
2016-11-18T04:59:46.155Z,0
2016-11-18T05:00:54.784Z,0
2016-11-18T05:02:04.124Z,0
2016-11-18T05:03:14.056Z,0
2016-11-18T05:04:22.998Z,0
2016-11-18T05:05:31.622Z,0
2016-11-18T05:06:40.876Z,0
2016-11-18T05:07:49.931Z,0
2016-11-18T05:08:58.875Z,0
2016-11-18T05:10:08.140Z,0
2016-11-18T05:11:17.390Z,0
2016-11-18T05:12:26.312Z,0
2016-11-18T05:13:36.029Z,0
2016-11-18T05:14:45.620Z,0
2016-11-18T05:15:54.891Z,0
2016-11-18T05:17:04.147Z,0
2016-11-18T05:18:12.760Z,0
2016-11-18T05:19:22.153Z,0
2016-11-18T05:20:31.101Z,0
2016-11-18T05:21:39.721Z,0
2016-11-18T05:22:48.663Z,0
2016-11-18T05:23:57.290Z,0
2016-11-18T05:25:06.298Z,0
2016-11-18T05:26:15.567Z,0
2016-11-18T05:27:24.182Z,0
2016-11-18T05:28:33.118Z,0
2016-11-18T05:29:41.722Z,0
2016-11-18T05:30:50.719Z,0
2016-11-18T05:31:59.984Z,0
2016-11-18T05:33:08.623Z,0
2016-11-18T05:34:17.876Z,0
2016-11-18T05:35:26.812Z,0
2016-11-18T05:36:36.182Z,0
2016-11-18T05:37:45.451Z,0
2016-11-18T05:38:54.056Z,0
2016-11-18T05:40:02.664Z,0
2016-11-18T05:41:11.607Z,0
2016-11-18T05:42:21.225Z,0
2016-11-18T05:43:30.485Z,0
2016-11-18T05:44:39.121Z,0
2016-11-18T05:45:48.069Z,0
2016-11-18T05:46:56.723Z,0
2016-11-18T05:48:05.391Z,0
2016-11-18T05:49:14.344Z,0
2016-11-18T05:50:23.615Z,0
2016-11-18T05:51:32.874Z,0
2016-11-18T05:52:41.481Z,0
2016-11-18T05:53:50.452Z,0
2016-11-18T05:54:59.394Z,0
2016-11-18T05:56:08.652Z,0
2016-11-18T05:57:17.974Z,0
2016-11-18T05:58:26.599Z,0
2016-11-18T06:02:07.189Z,0
2016-11-18T06:03:15.800Z,0
2016-11-18T06:04:25.369Z,0
2016-11-18T06:06:38.193Z,0
2016-11-18T06:07:46.812Z,0
2016-11-18T06:08:55.756Z,0
2016-11-18T06:10:04.694Z,0
2016-11-18T06:11:13.406Z,0
2016-11-18T06:12:22.674Z,0
2016-11-18T06:13:31.922Z,0
2016-11-18T06:14:40.867Z,0
2016-11-18T06:15:50.128Z,0
2016-11-18T06:16:59.128Z,0
2016-11-18T06:18:07.738Z,0
2016-11-18T06:19:16.992Z,0
2016-11-18T06:20:26.257Z,0
2016-11-18T06:21:35.530Z,4
2016-11-18T06:22:44.218Z,4
2016-11-18T06:23:52.819Z,4
2016-11-18T06:25:02.089Z,4
2016-11-18T06:26:11.358Z,4
2016-11-18T06:27:20.305Z,8
2016-11-18T06:28:28.950Z,8
2016-11-18T06:29:37.885Z,8
2016-11-18T06:30:47.162Z,12
2016-11-18T06:31:56.110Z,12
2016-11-18T06:33:04.721Z,12
2016-11-18T06:34:14.021Z,12
2016-11-18T06:35:23.282Z,16
2016-11-18T06:36:32.536Z,16
2016-11-18T06:37:41.783Z,20
2016-11-18T06:38:50.720Z,24
2016-11-18T06:40:00.086Z,28
2016-11-18T06:41:08.707Z,64
2016-11-18T06:42:17.684Z,28
2016-11-18T06:43:26.641Z,28
2016-11-18T06:44:35.254Z,24
2016-11-18T06:45:44.217Z,24
2016-11-18T06:46:53.175Z,28
2016-11-18T06:48:02.115Z,36
2016-11-18T06:49:11.725Z,44
2016-11-18T06:50:20.348Z,60
2016-11-18T06:51:29.954Z,72
2016-11-18T06:52:38.965Z,80
2016-11-18T06:53:47.586Z,88
2016-11-18T06:54:56.206Z,108
2016-11-18T06:56:05.132Z,132
2016-11-18T06:57:14.695Z,156
2016-11-18T06:58:23.635Z,172
2016-11-18T06:59:32.245Z,196
2016-11-18T07:00:41.185Z,224
2016-11-18T07:01:50.113Z,244
2016-11-18T07:02:59.807Z,276
2016-11-18T07:04:08.734Z,304
2016-11-18T07:05:17.371Z,336
2016-11-18T07:06:26.314Z,372
2016-11-18T07:07:35.261Z,408
2016-11-18T07:08:43.904Z,436
2016-11-18T07:09:52.847Z,460
2016-11-18T07:11:01.787Z,484
2016-11-18T07:12:11.075Z,512
2016-11-18T07:13:19.681Z,540
2016-11-18T07:14:28.334Z,580
2016-11-18T07:15:37.926Z,628
2016-11-18T07:16:46.546Z,680
2016-11-18T07:17:55.814Z,780
2016-11-18T07:19:04.748Z,880
2016-11-18T07:20:14.783Z,1000
2016-11-18T07:21:23.391Z,1104
2016-11-18T07:22:32.977Z,1236
2016-11-18T07:23:41.908Z,1468
2016-11-18T07:24:51.154Z,1676
2016-11-18T07:26:00.396Z,1688
2016-11-18T07:27:09.338Z,1660
2016-11-18T07:28:17.965Z,1652
2016-11-18T07:29:26.580Z,1664
2016-11-18T07:30:36.177Z,1624
2016-11-18T07:31:44.840Z,1556
2016-11-18T07:32:53.787Z,1472
2016-11-18T07:34:02.396Z,1428
2016-11-18T07:35:11.335Z,1412
2016-11-18T07:36:20.608Z,1404
2016-11-18T07:37:29.604Z,1400
2016-11-18T07:38:38.535Z,1400
2016-11-18T07:39:47.817Z,1384
2016-11-18T07:40:56.789Z,1284
2016-11-18T07:42:06.384Z,1244
2016-11-18T07:43:15.429Z,1300
2016-11-18T07:44:24.354Z,1288
2016-11-18T07:45:33.306Z,1164
2016-11-18T07:46:42.257Z,1152
2016-11-18T07:47:51.193Z,1196
2016-11-18T07:49:00.548Z,1432
2016-11-18T07:50:09.160Z,1732
2016-11-18T07:51:18.764Z,1684
2016-11-18T07:52:28.011Z,1624
2016-11-18T07:53:36.952Z,1880
2016-11-18T07:54:46.346Z,2080
2016-11-18T07:55:55.977Z,1928
2016-11-18T07:57:04.914Z,1744
2016-11-18T07:58:13.529Z,1612
2016-11-18T07:59:22.465Z,1492
2016-11-18T08:00:31.439Z,1900
2016-11-18T08:01:40.406Z,1828
2016-11-18T08:02:49.662Z,1944
2016-11-18T08:03:58.936Z,2000
2016-11-18T08:05:07.862Z,2240
2016-11-18T08:06:16.832Z,2212
2016-11-18T08:07:25.454Z,1852
2016-11-18T08:08:34.427Z,2456
2016-11-18T08:09:43.689Z,2880
2016-11-18T08:10:52.948Z,3120
2016-11-18T08:12:01.933Z,2952
2016-11-18T08:13:10.877Z,2620
2016-11-18T08:14:19.833Z,2880
2016-11-18T08:15:28.789Z,2760
2016-11-18T08:16:37.389Z,2676
2016-11-18T08:17:46.380Z,2980
2016-11-18T08:18:55.304Z,2988
2016-11-18T08:20:04.223Z,3420
2016-11-18T08:21:13.484Z,2828
2016-11-18T08:22:22.416Z,3260
2016-11-18T08:23:31.515Z,3768
2016-11-18T08:24:40.467Z,4332
2016-11-18T08:25:50.043Z,5140
2016-11-18T08:26:58.979Z,5452
2016-11-18T08:28:07.613Z,6580
2016-11-18T08:29:16.952Z,5240
2016-11-18T08:30:25.891Z,4000
2016-11-18T08:31:34.545Z,4804
2016-11-18T08:32:44.127Z,4584
2016-11-18T08:33:53.064Z,4692
2016-11-18T08:35:02.680Z,4668
2016-11-18T08:36:11.616Z,4444
2016-11-18T08:37:20.562Z,5148
2016-11-18T08:38:29.181Z,5604
2016-11-18T08:39:38.133Z,5708
2016-11-18T08:40:47.412Z,6244
2016-11-18T08:41:56.679Z,6616
2016-11-18T08:43:05.932Z,5272
2016-11-18T08:44:14.893Z,4912
2016-11-18T08:45:23.517Z,4980
2016-11-18T08:46:33.124Z,4628
2016-11-18T08:47:41.735Z,4924
2016-11-18T08:48:50.685Z,4904
2016-11-18T08:49:59.637Z,4640
2016-11-18T08:51:08.251Z,5016
2016-11-18T08:52:17.991Z,5196
2016-11-18T08:53:27.424Z,6072
2016-11-18T08:54:36.447Z,8084
2016-11-18T08:55:45.406Z,9904
2016-11-18T08:56:54.030Z,8164
2016-11-18T08:58:03.366Z,6128
2016-11-18T08:59:12.343Z,5848
2016-11-18T09:00:20.968Z,5508
2016-11-18T09:01:30.610Z,5592
2016-11-18T09:02:40.246Z,4752
2016-11-18T09:03:49.550Z,5132
2016-11-18T09:04:58.490Z,5424
2016-11-18T09:06:07.437Z,5732
2016-11-18T09:07:16.373Z,6480
2016-11-18T09:08:25.344Z,6340
2016-11-18T09:09:34.373Z,5964
2016-11-18T09:10:44.015Z,5288
2016-11-18T09:11:52.993Z,4512
2016-11-18T09:13:01.623Z,4704
2016-11-18T09:14:10.597Z,4680
2016-11-18T09:15:19.230Z,4552
2016-11-18T09:16:28.170Z,4612
2016-11-18T09:17:37.126Z,5096
2016-11-18T09:18:45.744Z,5616
2016-11-18T09:19:54.978Z,6712
2016-11-18T09:21:03.956Z,7716
2016-11-18T09:22:13.243Z,8268
2016-11-18T09:23:22.846Z,9588
2016-11-18T09:24:31.492Z,10208
2016-11-18T09:25:40.778Z,11012
2016-11-18T09:26:49.717Z,11860
2016-11-18T09:27:58.670Z,12096
2016-11-18T09:29:07.929Z,11708
2016-11-18T09:30:17.520Z,11616
2016-11-18T09:31:27.124Z,11800
2016-11-18T09:32:36.398Z,11208
2016-11-18T09:33:45.326Z,10524
2016-11-18T09:34:54.276Z,9172
2016-11-18T09:36:03.539Z,8184
2016-11-18T09:37:12.584Z,7732
2016-11-18T09:38:22.168Z,6588
2016-11-18T09:39:31.480Z,4696
2016-11-18T09:40:40.409Z,5860
2016-11-18T09:41:49.040Z,6836
2016-11-18T09:42:57.761Z,6908
2016-11-18T09:44:07.006Z,6904
2016-11-18T09:45:15.951Z,6328
2016-11-18T09:46:24.582Z,5848
2016-11-18T09:47:33.539Z,5188
2016-11-18T09:48:43.250Z,5052
2016-11-18T09:49:52.209Z,4880
2016-11-18T09:51:01.490Z,6092
2016-11-18T09:52:10.418Z,6096
2016-11-18T09:53:19.678Z,5560
2016-11-18T09:54:29.024Z,5696
2016-11-18T09:55:38.283Z,5432
2016-11-18T09:56:46.912Z,5012
2016-11-18T09:57:56.498Z,4616
2016-11-18T09:59:05.450Z,4580
2016-11-18T10:00:14.755Z,5136
2016-11-18T10:01:24.019Z,4680
2016-11-18T10:02:33.274Z,4204
2016-11-18T10:03:41.880Z,4428
2016-11-18T10:04:50.523Z,5232
2016-11-18T10:05:59.561Z,5800
2016-11-18T10:07:08.189Z,6712
2016-11-18T10:08:17.459Z,6420
2016-11-18T10:09:26.081Z,5764
2016-11-18T10:10:35.351Z,5952
2016-11-18T10:11:44.999Z,5400
2016-11-18T10:12:53.615Z,4684
2016-11-18T10:14:02.223Z,5292
2016-11-18T10:15:11.169Z,5252
2016-11-18T10:16:20.110Z,4192
2016-11-18T10:17:29.489Z,4196
2016-11-18T10:18:38.435Z,4444
2016-11-18T10:19:47.055Z,5920
2016-11-18T10:20:55.999Z,6912
2016-11-18T10:22:04.613Z,6652
2016-11-18T10:23:13.571Z,6800
2016-11-18T10:24:22.817Z,7564
2016-11-18T10:25:31.746Z,8324
2016-11-18T10:26:40.990Z,8600
2016-11-18T10:27:50.277Z,8632
2016-11-18T10:28:59.254Z,8972
2016-11-18T10:30:07.860Z,9416
2016-11-18T10:31:16.802Z,9632
2016-11-18T10:32:25.770Z,9224
2016-11-18T10:33:35.059Z,8528
2016-11-18T10:34:44.066Z,8092
2016-11-18T10:35:53.019Z,8388
2016-11-18T10:37:02.288Z,8792
2016-11-18T10:38:10.901Z,8812
2016-11-18T10:39:20.519Z,9908
2016-11-18T10:40:29.521Z,9000
2016-11-18T10:41:38.473Z,8016
2016-11-18T10:42:47.111Z,7696
2016-11-18T10:43:56.097Z,7692
2016-11-18T10:45:04.723Z,7888
2016-11-18T10:46:13.681Z,8296
2016-11-18T10:47:22.622Z,7892
2016-11-18T10:48:31.890Z,7240
2016-11-18T10:49:40.821Z,6748
2016-11-18T10:50:49.446Z,6776
2016-11-18T10:51:59.038Z,7164
2016-11-18T10:53:07.970Z,7208
2016-11-18T10:54:16.911Z,7440
2016-11-18T10:55:25.893Z,7840
2016-11-18T10:56:34.492Z,8164
2016-11-18T10:57:44.108Z,8552
2016-11-18T10:58:52.714Z,8712
2016-11-18T11:00:01.970Z,8692
2016-11-18T11:01:10.903Z,8340
2016-11-18T11:02:19.843Z,7680
2016-11-18T11:03:28.553Z,7784
2016-11-18T11:04:37.488Z,8760
2016-11-18T11:05:46.415Z,9016
2016-11-18T11:06:55.347Z,8464
2016-11-18T11:08:04.288Z,8032
2016-11-18T11:09:13.748Z,7876
2016-11-18T11:10:22.690Z,7916
2016-11-18T11:11:31.326Z,8464
2016-11-18T11:12:40.273Z,8876
2016-11-18T11:13:48.908Z,9476
2016-11-18T11:14:58.297Z,9468
2016-11-18T11:16:06.938Z,8636
2016-11-18T11:17:15.899Z,7832
2016-11-18T11:18:24.857Z,6884
2016-11-18T11:19:33.794Z,6300
2016-11-18T11:20:42.852Z,6716
2016-11-18T11:21:51.804Z,6412
2016-11-18T11:23:00.751Z,9200
2016-11-18T11:24:09.693Z,9632
2016-11-18T11:25:18.317Z,9100
2016-11-18T11:26:27.276Z,9460
2016-11-18T11:27:36.542Z,8636
2016-11-18T11:28:45.487Z,7836
2016-11-18T11:29:54.447Z,6916
2016-11-18T11:31:03.392Z,7824
2016-11-18T11:32:13.027Z,8552
2016-11-18T11:33:21.987Z,7868
2016-11-18T11:34:30.984Z,8880
2016-11-18T11:35:40.239Z,9632
2016-11-18T11:36:48.919Z,9476
2016-11-18T11:37:57.616Z,9268
2016-11-18T11:39:06.884Z,7784
2016-11-18T11:40:16.160Z,7792
2016-11-18T11:41:25.108Z,6960
2016-11-18T11:42:34.439Z,7368
2016-11-18T11:43:43.167Z,7052
2016-11-18T11:44:52.093Z,7872
2016-11-18T11:46:01.371Z,9896
2016-11-18T11:47:10.270Z,9564
2016-11-18T11:48:19.531Z,8036
2016-11-18T11:49:28.848Z,8028
2016-11-18T11:50:38.442Z,7276
2016-11-18T11:51:47.729Z,7552
2016-11-18T11:52:56.673Z,7776
2016-11-18T11:54:05.646Z,7592
2016-11-18T11:55:15.032Z,7244
2016-11-18T11:56:23.972Z,6588
2016-11-18T11:57:32.595Z,6076
2016-11-18T11:58:41.254Z,5732
2016-11-18T11:59:49.859Z,5664
2016-11-18T12:00:58.905Z,6084
2016-11-18T12:02:07.851Z,6324
2016-11-18T12:03:17.118Z,6172
2016-11-18T12:04:25.735Z,6708
2016-11-18T12:05:34.688Z,7084
2016-11-18T12:06:44.044Z,6792
2016-11-18T12:07:53.333Z,6208
2016-11-18T12:09:01.960Z,5316
2016-11-18T12:10:11.224Z,4824
2016-11-18T12:11:20.157Z,4896
2016-11-18T12:12:29.886Z,5008
2016-11-18T12:13:39.149Z,4888
2016-11-18T12:14:48.097Z,5440
2016-11-18T12:15:57.020Z,5028
2016-11-18T12:17:05.972Z,4808
2016-11-18T12:18:15.691Z,6304
2016-11-18T12:19:24.960Z,5300
2016-11-18T12:20:34.237Z,4304
2016-11-18T12:21:43.189Z,4708
2016-11-18T12:22:51.813Z,4768
2016-11-18T12:24:01.201Z,4780
2016-11-18T12:25:11.105Z,4824
2016-11-18T12:26:19.728Z,4856
2016-11-18T12:27:29.001Z,5208
2016-11-18T12:28:37.949Z,4996
2016-11-18T12:29:46.616Z,6004
2016-11-18T12:30:55.231Z,4724
2016-11-18T12:32:04.494Z,5464
2016-11-18T12:33:13.759Z,6668
2016-11-18T12:34:23.355Z,5728
2016-11-18T12:35:32.386Z,5412
2016-11-18T12:36:41.006Z,5968
2016-11-18T12:37:49.626Z,6016
2016-11-18T12:38:58.576Z,6464
2016-11-18T12:40:07.207Z,5712
2016-11-18T12:41:16.207Z,5400
2016-11-18T12:42:24.814Z,6528
2016-11-18T12:43:33.759Z,4768
2016-11-18T12:44:42.687Z,4088
2016-11-18T12:45:51.653Z,4156
2016-11-18T12:47:01.303Z,3936
2016-11-18T12:48:09.913Z,3752
2016-11-18T12:49:18.530Z,3756
2016-11-18T12:50:27.465Z,4156
2016-11-18T12:51:36.398Z,5292
2016-11-18T12:52:45.367Z,5460
2016-11-18T12:53:54.649Z,5236
2016-11-18T12:55:03.264Z,5400
2016-11-18T12:56:12.213Z,4512
2016-11-18T12:57:20.828Z,4764
2016-11-18T12:58:29.901Z,4980
2016-11-18T12:59:38.847Z,4520
2016-11-18T13:00:47.784Z,4896
2016-11-18T13:01:56.726Z,4932
2016-11-18T13:03:05.655Z,4572
2016-11-18T13:04:14.644Z,4072
2016-11-18T13:05:24.244Z,3544
2016-11-18T13:06:33.195Z,3576
2016-11-18T13:07:42.136Z,3720
2016-11-18T13:08:51.398Z,4348
2016-11-18T13:10:01.108Z,6044
2016-11-18T13:11:09.769Z,4948
2016-11-18T13:12:18.424Z,4432
2016-11-18T13:13:27.360Z,4148
2016-11-18T13:14:36.955Z,3972
2016-11-18T13:15:46.018Z,4212
2016-11-18T13:16:54.639Z,4900
2016-11-18T13:18:03.595Z,4420
2016-11-18T13:19:12.238Z,4400
2016-11-18T13:20:21.179Z,4536
2016-11-18T13:21:30.802Z,4468
2016-11-18T13:22:40.072Z,4212
2016-11-18T13:23:49.014Z,4048
2016-11-18T13:24:57.960Z,4192
2016-11-18T13:26:07.561Z,4572
2016-11-18T13:27:16.852Z,4716
2016-11-18T13:28:25.791Z,5052
2016-11-18T13:29:34.727Z,5476
2016-11-18T13:30:43.376Z,5448
2016-11-18T13:31:51.986Z,5300
2016-11-18T13:33:01.039Z,4972
2016-11-18T13:34:09.658Z,4660
2016-11-18T13:35:18.602Z,4732
2016-11-18T13:36:27.868Z,4808
2016-11-18T13:37:36.809Z,5160
2016-11-18T13:38:45.482Z,5152
2016-11-18T13:39:54.749Z,4228
2016-11-18T13:41:03.363Z,3280
2016-11-18T13:42:12.299Z,2892
2016-11-18T13:43:20.916Z,2644
2016-11-18T13:44:29.618Z,2376
2016-11-18T13:45:38.561Z,1688
2016-11-18T13:46:48.150Z,1308
2016-11-18T13:47:56.764Z,1172
2016-11-18T13:49:05.382Z,1084
2016-11-18T13:50:14.669Z,1056
2016-11-18T13:51:24.258Z,1340
2016-11-18T13:52:33.246Z,1376
2016-11-18T13:53:42.182Z,1552
2016-11-18T13:54:51.436Z,1320
2016-11-18T13:56:00.096Z,988
2016-11-18T13:57:09.047Z,892
2016-11-18T13:58:18.339Z,1180
2016-11-18T13:59:27.272Z,1576
2016-11-18T14:00:35.889Z,1944
2016-11-18T14:01:44.873Z,2640
2016-11-18T14:02:53.802Z,3312
2016-11-18T14:04:02.413Z,3392
2016-11-18T14:05:11.031Z,2624
2016-11-18T14:06:19.635Z,1640
2016-11-18T14:07:28.915Z,1060
2016-11-18T14:08:38.196Z,824
2016-11-18T14:09:46.825Z,864
2016-11-18T14:10:55.449Z,952
2016-11-18T14:12:04.407Z,916
2016-11-18T14:13:13.459Z,816
2016-11-18T14:14:22.399Z,732
2016-11-18T14:15:32.293Z,584
2016-11-18T14:16:41.250Z,560
2016-11-18T14:17:50.192Z,708
2016-11-18T14:18:59.218Z,788
2016-11-18T14:20:07.839Z,692
2016-11-18T14:21:16.765Z,700
2016-11-18T14:22:25.388Z,808
2016-11-18T14:23:34.317Z,728
2016-11-18T14:24:43.301Z,776
2016-11-18T14:25:51.898Z,1144
2016-11-18T14:27:00.853Z,2040
2016-11-18T14:28:10.105Z,3120
2016-11-18T14:29:18.721Z,3732
2016-11-18T14:30:27.704Z,3324
2016-11-18T14:31:36.964Z,2808
2016-11-18T14:32:45.898Z,2172
2016-11-18T14:33:54.851Z,2064
2016-11-18T14:35:03.443Z,1936
2016-11-18T14:36:12.811Z,1932
2016-11-18T14:37:22.405Z,1808
2016-11-18T14:38:31.321Z,1780
2016-11-18T14:39:40.603Z,1532
2016-11-18T14:40:49.217Z,1364
2016-11-18T14:41:58.217Z,1404
2016-11-18T14:43:07.471Z,1448
2016-11-18T14:44:16.415Z,1472
2016-11-18T14:45:25.357Z,1368
2016-11-18T14:46:34.635Z,1276
2016-11-18T14:47:43.579Z,1276
2016-11-18T14:48:52.537Z,1284
2016-11-18T14:50:01.807Z,1304
2016-11-18T14:51:10.779Z,1252
2016-11-18T14:52:20.028Z,1208
2016-11-18T14:53:29.337Z,1172
2016-11-18T14:54:38.583Z,1140
2016-11-18T14:55:47.519Z,1100
2016-11-18T14:56:57.084Z,1068
2016-11-18T14:58:06.020Z,1040
2016-11-18T14:59:15.388Z,1000
2016-11-18T15:00:24.013Z,956
2016-11-18T15:01:32.933Z,944
2016-11-18T15:02:41.558Z,916
2016-11-18T15:03:50.476Z,856
2016-11-18T15:04:59.521Z,852
2016-11-18T15:06:08.142Z,760
2016-11-18T15:07:17.083Z,784
2016-11-18T15:08:25.691Z,752
2016-11-18T15:09:34.300Z,652
2016-11-18T15:10:43.282Z,636
2016-11-18T15:11:51.907Z,644
2016-11-18T15:13:00.548Z,620
2016-11-18T15:14:09.485Z,596
2016-11-18T15:15:18.095Z,556
2016-11-18T15:16:27.133Z,528
2016-11-18T15:17:36.403Z,464
2016-11-18T15:18:45.021Z,420
2016-11-18T15:19:53.953Z,388
2016-11-18T15:21:03.263Z,368
2016-11-18T15:22:12.897Z,344
2016-11-18T15:23:21.849Z,308
2016-11-18T15:24:30.781Z,292
2016-11-18T15:25:39.395Z,264
2016-11-18T15:26:48.327Z,232
2016-11-18T15:27:58.056Z,212
2016-11-18T15:29:06.983Z,188
2016-11-18T15:30:15.923Z,164
2016-11-18T15:31:24.539Z,136
2016-11-18T15:32:33.484Z,112
2016-11-18T15:33:42.194Z,96
2016-11-18T15:34:50.808Z,80
2016-11-18T15:36:00.393Z,68
2016-11-18T15:37:09.671Z,64
2016-11-18T15:38:19.601Z,60
2016-11-18T15:39:28.264Z,52
2016-11-18T15:40:36.876Z,44
2016-11-18T15:41:45.491Z,36
2016-11-18T15:42:54.414Z,32
2016-11-18T15:44:03.338Z,28
2016-11-18T15:45:12.680Z,24
2016-11-18T15:46:21.643Z,20
2016-11-18T15:47:30.584Z,16
2016-11-18T15:48:39.516Z,12
2016-11-18T15:49:48.766Z,36
2016-11-18T15:50:58.161Z,44
2016-11-18T15:52:06.782Z,40
2016-11-18T15:53:15.802Z,40
2016-11-18T15:54:25.059Z,36
2016-11-18T15:55:34.333Z,36
2016-11-18T15:56:44.042Z,36
2016-11-18T15:57:52.648Z,36
2016-11-18T15:59:01.915Z,36
2016-11-18T16:00:10.858Z,32
2016-11-18T16:01:19.794Z,36
2016-11-18T16:02:28.727Z,36
2016-11-18T16:03:38.034Z,32
2016-11-18T16:04:47.291Z,32
2016-11-18T16:05:56.229Z,32
2016-11-18T16:07:05.480Z,32